Diego Garcia Naval Support Facility
FJDG : now visible

Airfield :











YOU CAN JOIN US ON...

 
LOGIN :

Register | Disclaimer

   EN    FR    IT 

 









Legend :    VFR   Marginal VFR   IFR   Intensive IFR   Very Intensive IFR
Visi :
Ceiling :
>= 8 km
>= 3000ft
5 to 8 km
1000 to 3000 ft
1500m to 5 km
500 to 1000 ft
800 to 1500m
200 to 500 ft
< 800m
< 200 ft
Symbols :   Thunderstorms  Fog  Heavy snow  Heavy precipitations  Wind > 20 kt






- Airport Elevation : 9 ft
- IATA code : NKW


FJDG - Diego Garcia Naval Support Facility

CURRENT METAR :
  • 281655Z 34010KT 9999 FEW020 SCT048 OVC080 27/25 A2991 RMK SLP125 T2 SET P0011 T02730245

EXPIRED METARs :
  • 281555Z 28007KT 9000 -SHRA SCT019 BKN050 OVC090 28/25 A2989 RMK SLP119 P0001 T02780249
  • 281540Z 29009KT 8000 -SHRA SCT019 BKN050 OVC080 28/25 A2988 RMK SLP115
  • 281455Z 32008KT 9999 SCT020 SCT050 OVC095 28/25 A2986 RMK SLP108 60009 8/87/ T02790251 53017

TAF TAF FJDG
Valid from the 28 at 17:00 until the 29 at 23:00 UTC


281700Z 2817/2923 29009KT 9999 FEW020 SCT040 BKN080 QNH2983INS
TEMPO 2817/2823 29010G15KT 6000 -SHRA SCT020 BKN050 OVC080
BECMG 2909/2910 24009KT 9999 FEW020 SCT050 BKN120 QNH2985INS TX32/2908Z TN27/2817Z



MET'MAP, your aeronautical weather chart ! - Copyright ORBIFLY December 2007 - Disclaimer

ORBIFLY MET'MAP TEAM :

Programming & Development : Alexandra Zaïnal
Concept & original design : Baudouin d'Aumeries
Assistance for programming : Marc-Olivier Méhu
Technical & hardware support : Manuel Goepfert

Contact : metmap@orbifly.com




SOURCES & CREDITS :

   NOAA       Earth
Advisory